BAW0608 LSZH-EGLL
Flight info
| Callsign | BAW0608 |
|---|---|
| Flight time | N/A |
| Altitude | 38000 |
| Route | DEGES Z1 ETAGO DCT LIRSU DCT DENUT L608 LOGAN |
| Aircraft | B77W/H-SDE1E2E3FGHIJ2J3J4J5M1RWXY/LB1D1 |
Departure
| Time | N/A |
|---|---|
| Airport | Zürich Airport (LSZH) |
Arrival
| Time | 2026-05-07 16:46 |
|---|---|
| Airport | London Heathrow Airport (EGLL) |
| Time | Latitude | Longitude | Altitude | Speed | Heading |
|---|---|---|---|---|---|
| 2026-05-07 16:20 | 51.64546 | 2.07080 | 35885 ft | 439 kts | 289° |
| 2026-05-07 16:20 | 51.65606 | 2.02388 | 34793 ft | 451 kts | 289° |
| 2026-05-07 16:20 | 51.66684 | 1.97592 | 33742 ft | 459 kts | 289° |
| 2026-05-07 16:20 | 51.67776 | 1.92726 | 32546 ft | 465 kts | 289° |
| 2026-05-07 16:21 | 51.68881 | 1.87791 | 31382 ft | 470 kts | 289° |
| 2026-05-07 16:21 | 51.69997 | 1.82804 | 30325 ft | 473 kts | 289° |
| 2026-05-07 16:21 | 51.71110 | 1.77820 | 29082 ft | 473 kts | 289° |
| 2026-05-07 16:21 | 51.72231 | 1.72789 | 27491 ft | 480 kts | 289° |
| 2026-05-07 16:22 | 51.73363 | 1.67696 | 25991 ft | 485 kts | 289° |
| 2026-05-07 16:22 | 51.74381 | 1.62638 | 25312 ft | 459 kts | 282° |
| 2026-05-07 16:22 | 51.74750 | 1.57701 | 24777 ft | 445 kts | 268° |
| 2026-05-07 16:22 | 51.74402 | 1.52790 | 23982 ft | 438 kts | 262° |
| 2026-05-07 16:23 | 51.73999 | 1.47935 | 23233 ft | 434 kts | 262° |
| 2026-05-07 16:23 | 51.73641 | 1.43132 | 22529 ft | 428 kts | 263° |
| 2026-05-07 16:23 | 51.73553 | 1.41877 | 22357 ft | 427 kts | 263° |
| 2026-05-07 16:23 | 51.73237 | 1.37266 | 21736 ft | 421 kts | 263° |
| 2026-05-07 16:24 | 51.72929 | 1.32611 | 21113 ft | 415 kts | 263° |
| 2026-05-07 16:24 | 51.72625 | 1.28002 | 20496 ft | 410 kts | 263° |
| 2026-05-07 16:24 | 51.72322 | 1.23438 | 19886 ft | 406 kts | 263° |
| 2026-05-07 16:24 | 51.72021 | 1.18935 | 19296 ft | 402 kts | 263° |
| 2026-05-07 16:25 | 51.71720 | 1.14467 | 18710 ft | 398 kts | 263° |
| 2026-05-07 16:25 | 51.71423 | 1.10096 | 18096 ft | 395 kts | 263° |
| 2026-05-07 16:25 | 51.71124 | 1.05706 | 17442 ft | 392 kts | 263° |
| 2026-05-07 16:25 | 51.70826 | 1.01361 | 16859 ft | 387 kts | 263° |
| 2026-05-07 16:26 | 51.70530 | 0.97069 | 16284 ft | 383 kts | 263° |
| 2026-05-07 16:26 | 51.70235 | 0.92823 | 15768 ft | 379 kts | 263° |
| 2026-05-07 16:26 | 51.69943 | 0.88624 | 15309 ft | 373 kts | 263° |
| 2026-05-07 16:26 | 51.69655 | 0.84494 | 14857 ft | 369 kts | 263° |
| 2026-05-07 16:27 | 51.69367 | 0.80383 | 14407 ft | 369 kts | 263° |
| 2026-05-07 16:27 | 51.69077 | 0.76248 | 13962 ft | 371 kts | 263° |
| 2026-05-07 16:27 | 51.68788 | 0.72154 | 13451 ft | 372 kts | 263° |
| 2026-05-07 16:27 | 51.68493 | 0.68007 | 12976 ft | 372 kts | 263° |
| 2026-05-07 16:28 | 51.68197 | 0.63886 | 12547 ft | 369 kts | 263° |
| 2026-05-07 16:28 | 51.68098 | 0.62501 | 12370 ft | 367 kts | 263° |
| 2026-05-07 16:28 | 51.68004 | 0.61200 | 12222 ft | 366 kts | 263° |
| 2026-05-07 16:28 | 51.67761 | 0.57819 | 11829 ft | 361 kts | 263° |
| 2026-05-07 16:29 | 51.67473 | 0.53832 | 11387 ft | 355 kts | 263° |
| 2026-05-07 16:29 | 51.67187 | 0.49897 | 10951 ft | 350 kts | 263° |
| 2026-05-07 16:29 | 51.66904 | 0.46029 | 10527 ft | 345 kts | 263° |
| 2026-05-07 16:29 | 51.66626 | 0.42260 | 10112 ft | 341 kts | 263° |
| 2026-05-07 16:30 | 51.66348 | 0.38496 | 9804 ft | 333 kts | 263° |
| 2026-05-07 16:30 | 51.66077 | 0.34833 | 9562 ft | 324 kts | 263° |
| 2026-05-07 16:30 | 51.65818 | 0.31348 | 9380 ft | 299 kts | 263° |
| 2026-05-07 16:30 | 51.65580 | 0.28151 | 9004 ft | 277 kts | 263° |
| 2026-05-07 16:31 | 51.65356 | 0.25145 | 8454 ft | 268 kts | 262° |
| 2026-05-07 16:31 | 51.65127 | 0.22108 | 7968 ft | 273 kts | 263° |
| 2026-05-07 16:31 | 51.64904 | 0.19156 | 7506 ft | 258 kts | 262° |
| 2026-05-07 16:31 | 51.64694 | 0.16371 | 7242 ft | 245 kts | 262° |
| 2026-05-07 16:32 | 51.64508 | 0.13709 | 7127 ft | 240 kts | 264° |
| 2026-05-07 16:32 | 51.64358 | 0.11034 | 7080 ft | 239 kts | 264° |
| 2026-05-07 16:32 | 51.64215 | 0.08370 | 7077 ft | 239 kts | 264° |
| 2026-05-07 16:32 | 51.64070 | 0.05686 | 7080 ft | 241 kts | 264° |
| 2026-05-07 16:33 | 51.63923 | 0.02994 | 7073 ft | 242 kts | 264° |
| 2026-05-07 16:33 | 51.63776 | 0.00297 | 7074 ft | 242 kts | 264° |
| 2026-05-07 16:33 | 51.63626 | -0.02407 | 7073 ft | 242 kts | 264° |
| 2026-05-07 16:33 | 51.63476 | -0.05106 | 7071 ft | 242 kts | 264° |
| 2026-05-07 16:34 | 51.63326 | -0.07780 | 7069 ft | 242 kts | 264° |
| 2026-05-07 16:34 | 51.63174 | -0.10477 | 7072 ft | 241 kts | 264° |
| 2026-05-07 16:34 | 51.63021 | -0.13175 | 7072 ft | 241 kts | 264° |
| 2026-05-07 16:34 | 51.62868 | -0.15866 | 7074 ft | 241 kts | 264° |
| 2026-05-07 16:35 | 51.62714 | -0.18550 | 7075 ft | 241 kts | 264° |
| 2026-05-07 16:35 | 51.62562 | -0.21200 | 7078 ft | 240 kts | 264° |
| 2026-05-07 16:35 | 51.62408 | -0.23874 | 7076 ft | 240 kts | 264° |
| 2026-05-07 16:35 | 51.62254 | -0.26550 | 7075 ft | 240 kts | 264° |
| 2026-05-07 16:36 | 51.62098 | -0.29230 | 7076 ft | 239 kts | 264° |
| 2026-05-07 16:36 | 51.61942 | -0.31896 | 7078 ft | 239 kts | 264° |
| 2026-05-07 16:36 | 51.61785 | -0.34567 | 7064 ft | 237 kts | 264° |
| 2026-05-07 16:36 | 51.61633 | -0.37163 | 7062 ft | 237 kts | 264° |
| 2026-05-07 16:37 | 51.61478 | -0.39782 | 7047 ft | 235 kts | 264° |
| 2026-05-07 16:37 | 51.61323 | -0.42405 | 7058 ft | 236 kts | 265° |
| 2026-05-07 16:37 | 51.61167 | -0.45026 | 7051 ft | 235 kts | 265° |
| 2026-05-07 16:37 | 51.61010 | -0.47649 | 7048 ft | 235 kts | 264° |
| 2026-05-07 16:38 | 51.60853 | -0.50270 | 7049 ft | 235 kts | 265° |
| 2026-05-07 16:38 | 51.60696 | -0.52892 | 7050 ft | 235 kts | 265° |
| 2026-05-07 16:38 | 51.60539 | -0.55507 | 7047 ft | 233 kts | 265° |
| 2026-05-07 16:38 | 51.60381 | -0.58116 | 7050 ft | 235 kts | 265° |
| 2026-05-07 16:39 | 51.60165 | -0.60699 | 7032 ft | 232 kts | 254° |
| 2026-05-07 16:39 | 51.59498 | -0.63052 | 7061 ft | 235 kts | 242° |
| 2026-05-07 16:39 | 51.58693 | -0.65348 | 7040 ft | 237 kts | 241° |
| 2026-05-07 16:39 | 51.57864 | -0.67666 | 6757 ft | 241 kts | 241° |
| 2026-05-07 16:40 | 51.57017 | -0.70022 | 6510 ft | 244 kts | 241° |
| 2026-05-07 16:40 | 51.56169 | -0.72372 | 6430 ft | 241 kts | 241° |
| 2026-05-07 16:40 | 51.55321 | -0.74706 | 6433 ft | 242 kts | 240° |
| 2026-05-07 16:40 | 51.54329 | -0.76862 | 6159 ft | 244 kts | 222° |
| 2026-05-07 16:41 | 51.52812 | -0.78070 | 5563 ft | 254 kts | 192° |
| 2026-05-07 16:41 | 51.51021 | -0.78328 | 4925 ft | 264 kts | 182° |
| 2026-05-07 16:41 | 51.49166 | -0.77991 | 3977 ft | 278 kts | 161° |
| 2026-05-07 16:41 | 51.47520 | -0.76291 | 3223 ft | 285 kts | 132° |
| 2026-05-07 16:42 | 51.46606 | -0.73644 | 2697 ft | 261 kts | 101° |
| 2026-05-07 16:42 | 51.46666 | -0.70948 | 2524 ft | 225 kts | 69° |
| 2026-05-07 16:42 | 51.47151 | -0.68832 | 2555 ft | 182 kts | 70° |
| 2026-05-07 16:42 | 51.47427 | -0.66924 | 2465 ft | 176 kts | 79° |
| 2026-05-07 16:43 | 51.47575 | -0.65026 | 2201 ft | 165 kts | 82° |
| 2026-05-07 16:43 | 51.47668 | -0.63282 | 1981 ft | 149 kts | 84° |
| 2026-05-07 16:43 | 51.47696 | -0.61678 | 1801 ft | 142 kts | 86° |
| 2026-05-07 16:43 | 51.47707 | -0.60087 | 1628 ft | 146 kts | 87° |
| 2026-05-07 16:44 | 51.47715 | -0.58451 | 1416 ft | 146 kts | 86° |
| 2026-05-07 16:44 | 51.47721 | -0.56829 | 1193 ft | 143 kts | 86° |
| 2026-05-07 16:44 | 51.47726 | -0.55245 | 984 ft | 141 kts | 87° |
| 2026-05-07 16:44 | 51.47731 | -0.53691 | 777 ft | 137 kts | 89° |
| 2026-05-07 16:45 | 51.47736 | -0.52168 | 577 ft | 137 kts | 90° |
| 2026-05-07 16:45 | 51.47746 | -0.50651 | 394 ft | 137 kts | 91° |
| 2026-05-07 16:45 | 51.47759 | -0.49131 | 167 ft | 135 kts | 92° |
| 2026-05-07 16:45 | 51.47744 | -0.47683 | 90 ft | 120 kts | 89° |
| 2026-05-07 16:46 | 51.47754 | -0.46638 | 95 ft | 68 kts | 89° |
| 2026-05-07 16:46 | 51.47712 | -0.46172 | 94 ft | 23 kts | 117° |
| 2026-05-07 16:46 | 51.47672 | -0.46111 | 95 ft | 0 kts | 146° |
| 2026-05-07 16:47 | 51.47665 | -0.46104 | 95 ft | 2 kts | 146° |
| 2026-05-07 16:48 | 51.47647 | -0.46084 | 95 ft | 5 kts | 146° |
| 2026-05-07 16:48 | 51.47611 | -0.46081 | 94 ft | 6 kts | 200° |
| 2026-05-07 16:48 | 51.47593 | -0.46142 | 96 ft | 7 kts | 270° |
| 2026-05-07 16:48 | 51.47593 | -0.46241 | 95 ft | 10 kts | 270° |
| 2026-05-07 16:49 | 51.47592 | -0.46373 | 92 ft | 13 kts | 270° |
| 2026-05-07 16:49 | 51.47592 | -0.46535 | 92 ft | 16 kts | 270° |
| 2026-05-07 16:49 | 51.47592 | -0.46727 | 92 ft | 19 kts | 270° |
| 2026-05-07 16:49 | 51.47580 | -0.46945 | 95 ft | 21 kts | 264° |
| 2026-05-07 16:50 | 51.47583 | -0.47183 | 95 ft | 21 kts | 270° |
| 2026-05-07 16:50 | 51.47582 | -0.47341 | 95 ft | 21 kts | 269° |
| 2026-05-07 16:50 | 51.47581 | -0.47567 | 95 ft | 18 kts | 269° |
| 2026-05-07 16:50 | 51.47580 | -0.47779 | 95 ft | 9 kts | 270° |
| 2026-05-07 16:51 | 51.47568 | -0.47840 | 95 ft | 9 kts | 227° |
| 2026-05-07 16:51 | 51.47485 | -0.47875 | 92 ft | 10 kts | 181° |
| 2026-05-07 16:51 | 51.47437 | -0.47875 | 92 ft | 10 kts | 180° |
| 2026-05-07 16:51 | 51.47399 | -0.47845 | 94 ft | 6 kts | 117° |
| 2026-05-07 16:52 | 51.47396 | -0.47780 | 95 ft | 5 kts | 92° |
| 2026-05-07 16:52 | 51.47396 | -0.47740 | 95 ft | 2 kts | 89° |
| 2026-05-07 16:52 | 51.47396 | -0.47734 | 95 ft | 0 kts | 89° |